createdAt,value
2022-11-01T00:01:21.678Z,10.90
2022-11-01T00:03:55.388Z,10.90
2022-11-01T00:06:29.242Z,10.80
2022-11-01T00:09:02.941Z,10.80
2022-11-01T00:11:36.601Z,10.80
2022-11-01T00:14:12.876Z,10.80
2022-11-01T00:16:47.114Z,10.90
2022-11-01T00:19:21.161Z,11.00
2022-11-01T00:21:54.749Z,11.00
2022-11-01T00:24:31.086Z,11.00
2022-11-01T00:27:04.719Z,11.10
2022-11-01T00:29:38.289Z,11.10
2022-11-01T00:32:11.884Z,11.10
2022-11-01T00:34:45.420Z,11.20
2022-11-01T00:37:18.998Z,11.20
2022-11-01T00:39:52.529Z,11.20
2022-11-01T00:42:26.151Z,11.20
2022-11-01T00:45:00.306Z,11.26
2022-11-01T00:47:33.952Z,11.24
2022-11-01T00:50:09.170Z,11.28
2022-11-01T00:52:45.117Z,11.24
2022-11-01T00:55:21.142Z,11.26
2022-11-01T00:57:57.338Z,11.20
2022-11-01T01:00:34.292Z,11.20
2022-11-01T01:03:12.765Z,11.14
2022-11-01T01:05:50.331Z,11.10
2022-11-01T01:08:29.639Z,11.10
2022-11-01T01:11:05.547Z,11.06
2022-11-01T01:13:41.325Z,11.00
2022-11-01T01:16:17.627Z,11.00
2022-11-01T01:18:52.644Z,10.94
2022-11-01T01:21:27.057Z,10.90
2022-11-01T01:24:02.497Z,10.90
2022-11-01T01:26:38.342Z,10.90
2022-11-01T01:29:13.856Z,10.80
2022-11-01T01:31:50.157Z,10.80
2022-11-01T01:34:25.426Z,10.80
2022-11-01T01:37:02.168Z,10.80
2022-11-01T01:39:37.334Z,10.78
2022-11-01T01:42:23.347Z,10.74
2022-11-01T01:45:37.140Z,10.80
2022-11-01T01:48:23.121Z,10.80
2022-11-01T01:58:56.781Z,10.70
2022-11-01T02:01:31.836Z,10.70
2022-11-01T02:04:12.263Z,10.70
2022-11-01T02:06:46.035Z,10.70
2022-11-01T02:09:21.597Z,10.64
2022-11-01T02:11:55.093Z,10.64
2022-11-01T02:14:30.180Z,10.60
2022-11-01T02:17:10.625Z,10.50
2022-11-01T02:20:21.125Z,10.48
2022-11-01T02:23:24.824Z,10.40
2022-11-01T02:26:22.887Z,10.40
2022-11-01T02:29:16.586Z,10.40
2022-11-01T02:32:21.123Z,10.40
2022-11-01T02:35:01.345Z,10.38
2022-11-01T02:37:45.296Z,10.40
2022-11-01T02:40:26.604Z,10.40
2022-11-01T02:43:08.955Z,10.40
2022-11-01T02:45:48.003Z,10.40
2022-11-01T02:48:25.718Z,10.38
2022-11-01T02:51:01.669Z,10.32
2022-11-01T02:53:35.253Z,10.30
2022-11-01T02:56:11.945Z,10.30
2022-11-01T02:58:46.243Z,10.30
2022-11-01T03:01:29.311Z,10.30
2022-11-01T03:04:04.525Z,10.30
2022-11-01T03:06:46.823Z,10.32
2022-11-01T03:09:20.620Z,10.40
2022-11-01T03:12:03.137Z,10.40
2022-11-01T03:14:49.232Z,10.40
2022-11-01T03:17:34.520Z,10.40
2022-11-01T03:20:17.021Z,10.30
2022-11-01T03:22:57.150Z,10.30
2022-11-01T03:25:40.269Z,10.30
2022-11-01T03:28:21.959Z,10.26
2022-11-01T03:31:02.353Z,10.22
2022-11-01T03:33:41.987Z,10.20
2022-11-01T03:36:20.937Z,10.20
2022-11-01T03:39:01.190Z,10.20
2022-11-01T03:41:43.479Z,10.12
2022-11-01T03:44:18.201Z,10.10
2022-11-01T03:46:52.515Z,10.10
2022-11-01T03:49:26.113Z,10.10
2022-11-01T03:51:59.711Z,10.10
2022-11-01T03:54:33.205Z,10.10
2022-11-01T03:57:06.805Z,9.90
2022-11-01T03:59:40.303Z,9.80
2022-11-01T04:02:13.789Z,9.70
2022-11-01T04:04:48.908Z,9.64
2022-11-01T04:07:22.403Z,9.60
2022-11-01T04:09:55.882Z,9.60
2022-11-01T04:12:29.482Z,9.60
2022-11-01T04:15:21.012Z,9.60
2022-11-01T04:18:26.322Z,9.60
2022-11-01T04:21:02.481Z,9.60
2022-11-01T04:23:36.553Z,9.50
2022-11-01T04:26:14.806Z,9.50
2022-11-01T04:28:57.291Z,9.50
2022-11-01T04:31:37.064Z,9.48
2022-11-01T04:34:11.564Z,9.40
2022-11-01T04:36:45.031Z,9.30
2022-11-01T04:39:18.887Z,9.10
2022-11-01T04:41:52.417Z,9.10
2022-11-01T04:44:25.963Z,9.00
2022-11-01T04:46:59.612Z,9.00
2022-11-01T04:49:33.097Z,9.00
2022-11-01T04:52:07.638Z,9.00
2022-11-01T04:54:41.334Z,9.00
2022-11-01T04:57:24.488Z,8.90
2022-11-01T04:59:58.963Z,8.80
2022-11-01T05:02:34.436Z,8.70
2022-11-01T05:05:10.460Z,8.62
2022-11-01T05:07:44.516Z,8.60
2022-11-01T05:10:18.331Z,8.70
2022-11-01T05:12:51.903Z,8.80
2022-11-01T05:15:25.600Z,8.90
2022-11-01T05:17:59.234Z,8.90
2022-11-01T05:20:36.191Z,9.00
2022-11-01T05:23:11.804Z,9.00
2022-11-01T05:25:45.506Z,9.04
2022-11-01T05:28:19.239Z,9.08
2022-11-01T05:30:53.096Z,9.10
2022-11-01T05:33:26.763Z,9.10
2022-11-01T05:36:03.120Z,9.10
2022-11-01T05:38:36.742Z,9.20
2022-11-01T05:41:10.684Z,9.18
2022-11-01T05:43:44.553Z,9.10
2022-11-01T05:46:18.449Z,9.10
2022-11-01T05:48:52.146Z,9.10
2022-11-01T05:51:27.020Z,9.10
2022-11-01T05:54:02.679Z,9.10
2022-11-01T05:56:37.313Z,9.14
2022-11-01T05:59:10.913Z,9.16
2022-11-01T06:01:45.562Z,9.10
2022-11-01T06:04:19.514Z,9.10
2022-11-01T06:06:53.103Z,9.12
2022-11-01T06:09:26.933Z,9.20
2022-11-01T06:12:00.928Z,9.18
2022-11-01T06:17:13.644Z,9.12
2022-11-01T06:20:43.757Z,9.20
2022-11-01T06:23:17.601Z,9.20
2022-11-01T06:25:51.628Z,9.24
2022-11-01T06:28:25.239Z,9.30
2022-11-01T06:31:01.156Z,9.30
2022-11-01T06:33:35.453Z,9.40
2022-11-01T06:36:10.623Z,9.42
2022-11-01T06:38:44.348Z,9.50
2022-11-01T06:41:18.282Z,9.60
2022-11-01T06:43:53.968Z,9.60
2022-11-01T06:46:28.014Z,9.60
2022-11-01T06:49:02.156Z,9.60
2022-11-01T06:51:35.867Z,9.60
2022-11-01T06:54:10.231Z,9.60
2022-11-01T06:56:47.590Z,9.60
2022-11-01T06:59:21.431Z,9.70
2022-11-01T07:01:55.676Z,9.70
2022-11-01T07:04:30.168Z,9.70
2022-11-01T07:07:03.763Z,9.80
2022-11-01T07:09:39.096Z,9.82
2022-11-01T07:12:12.872Z,9.90
2022-11-01T07:14:46.796Z,10.00
2022-11-01T07:17:20.500Z,10.10
2022-11-01T07:19:54.501Z,10.20
2022-11-01T07:22:28.199Z,10.28
2022-11-01T07:25:02.181Z,10.38
2022-11-01T07:27:37.964Z,10.46
2022-11-01T07:30:15.205Z,10.54
2022-11-01T07:32:49.291Z,10.62
2022-11-01T07:35:23.009Z,10.70
2022-11-01T07:38:00.291Z,10.80
2022-11-01T07:40:35.125Z,10.90
2022-11-01T07:43:10.026Z,11.00
2022-11-01T07:45:43.940Z,11.10
2022-11-01T07:48:20.352Z,11.20
2022-11-01T07:50:58.455Z,11.30
2022-11-01T07:53:32.256Z,11.40
2022-11-01T07:56:08.091Z,11.50
2022-11-01T07:58:43.694Z,11.60
2022-11-01T08:01:17.485Z,11.70
2022-11-01T08:03:52.320Z,11.82
2022-11-01T08:06:26.306Z,11.98
2022-11-01T08:09:01.028Z,12.10
2022-11-01T08:11:34.832Z,12.20
2022-11-01T08:14:12.261Z,12.30
2022-11-01T08:16:49.202Z,12.30
2022-11-01T08:19:24.409Z,12.30
2022-11-01T08:22:01.796Z,12.40
2022-11-01T08:24:35.585Z,12.50
2022-11-01T08:27:09.481Z,12.60
2022-11-01T08:29:44.459Z,12.70
2022-11-01T08:32:23.166Z,12.80
2022-11-01T08:34:56.967Z,12.90
2022-11-01T08:37:30.905Z,13.10
2022-11-01T08:40:05.569Z,13.30
2022-11-01T08:42:42.287Z,13.54
2022-11-01T08:45:17.156Z,13.80
2022-11-01T08:47:51.040Z,13.70
2022-11-01T08:50:25.203Z,13.70
2022-11-01T08:52:59.474Z,13.80
2022-11-01T08:55:37.404Z,14.00
2022-11-01T08:58:12.464Z,14.16
2022-11-01T09:00:46.685Z,14.30
2022-11-01T09:03:20.421Z,14.46
2022-11-01T09:05:54.123Z,14.60
2022-11-01T09:08:31.923Z,14.60
2022-11-01T09:11:06.739Z,14.86
2022-11-01T09:13:45.447Z,15.00
2022-11-01T09:23:56.722Z,15.68
2022-11-01T09:26:30.384Z,15.70
2022-11-01T09:29:04.694Z,15.84
2022-11-01T09:31:38.612Z,16.00
2022-11-01T09:34:13.500Z,16.10
2022-11-01T09:36:47.652Z,16.32
2022-11-01T09:39:22.320Z,16.50
2022-11-01T09:42:01.220Z,16.60
2022-11-01T09:44:41.587Z,16.70
2022-11-01T09:47:22.514Z,16.80
2022-11-01T09:50:04.375Z,16.90
2022-11-01T09:52:37.988Z,16.80
2022-11-01T09:55:19.923Z,16.80
2022-11-01T09:58:08.185Z,17.00
2022-11-01T10:00:53.716Z,17.30
2022-11-01T10:03:57.929Z,17.50
2022-11-01T10:06:40.958Z,17.80
2022-11-01T10:09:29.655Z,17.80
2022-11-01T10:12:17.643Z,17.86
2022-11-01T10:15:12.684Z,18.00
2022-11-01T10:17:53.977Z,18.10
2022-11-01T10:20:34.632Z,18.20
2022-11-01T10:23:09.152Z,18.20
2022-11-01T10:25:49.047Z,18.16
2022-11-01T10:28:35.243Z,18.20
2022-11-01T10:31:18.992Z,18.30
2022-11-01T10:34:00.158Z,18.30
2022-11-01T10:36:40.038Z,18.30
2022-11-01T10:42:21.088Z,18.20
2022-11-01T10:45:00.430Z,18.20
2022-11-01T10:47:34.562Z,18.30
2022-11-01T10:50:19.567Z,18.20
2022-11-01T10:52:58.138Z,18.40
2022-11-01T10:55:40.034Z,18.70
2022-11-01T10:58:31.737Z,19.08
2022-11-01T11:01:08.449Z,19.40
2022-11-01T11:03:45.729Z,19.50
2022-11-01T11:06:20.563Z,19.70
2022-11-01T11:08:57.861Z,19.94
2022-11-01T11:11:40.785Z,20.10
2022-11-01T11:14:17.224Z,20.20
2022-11-01T11:16:56.856Z,20.42
2022-11-01T11:19:39.067Z,20.48
2022-11-01T11:22:13.632Z,20.06
2022-11-01T11:24:48.751Z,19.80
2022-11-01T11:27:27.886Z,19.70
2022-11-01T11:30:06.478Z,19.80
2022-11-01T11:32:50.345Z,20.00
2022-11-01T11:35:27.107Z,20.02
2022-11-01T11:38:04.511Z,20.30
2022-11-01T11:40:48.324Z,20.50
2022-11-01T11:43:34.332Z,20.80
2022-11-01T11:46:21.033Z,21.10
2022-11-01T11:48:59.341Z,20.94
2022-11-01T11:51:37.711Z,20.90
2022-11-01T11:54:29.325Z,20.90
2022-11-01T11:57:20.629Z,20.90
2022-11-01T12:00:01.371Z,20.76
2022-11-01T12:02:40.300Z,20.50
2022-11-01T12:05:22.528Z,20.30
2022-11-01T12:07:59.203Z,20.30
2022-11-01T12:10:37.585Z,20.30
2022-11-01T12:13:29.843Z,20.30
2022-11-01T12:16:25.692Z,20.20
2022-11-01T12:19:02.122Z,20.14
2022-11-01T12:21:41.593Z,20.20
2022-11-01T12:24:23.821Z,20.24
2022-11-01T12:27:02.952Z,20.50
2022-11-01T12:29:43.540Z,20.60
2022-11-01T12:32:24.911Z,20.80
2022-11-01T12:35:03.837Z,20.82
2022-11-01T12:37:50.881Z,21.00
2022-11-01T12:40:31.774Z,21.10
2022-11-01T12:43:16.569Z,21.00
2022-11-01T12:45:57.125Z,21.18
2022-11-01T12:48:36.506Z,21.52
2022-11-01T12:51:36.317Z,21.70
2022-11-01T12:54:16.819Z,22.00
2022-11-01T12:56:50.694Z,22.10
2022-11-01T12:59:33.720Z,22.20
2022-11-01T13:02:32.347Z,22.30
2022-11-01T13:05:16.341Z,22.70
2022-11-01T13:08:07.288Z,22.80
2022-11-01T13:10:44.213Z,22.70
2022-11-01T13:13:27.361Z,22.58
2022-11-01T13:16:11.395Z,22.70
2022-11-01T13:18:55.646Z,22.80
2022-11-01T13:21:38.186Z,22.70
2022-11-01T13:24:26.854Z,22.60
2022-11-01T13:27:11.514Z,22.36
2022-11-01T13:29:59.527Z,21.80
2022-11-01T13:32:44.718Z,21.36
2022-11-01T13:35:47.278Z,20.84
2022-11-01T13:38:32.681Z,20.50
2022-11-01T13:41:19.926Z,20.20
2022-11-01T13:44:02.000Z,20.10
2022-11-01T13:47:08.518Z,20.30
2022-11-01T13:50:16.853Z,20.40
2022-11-01T13:52:59.333Z,20.70
2022-11-01T13:55:39.543Z,20.90
2022-11-01T13:58:21.242Z,20.80
2022-11-01T14:00:56.919Z,20.60
2022-11-01T14:03:35.666Z,20.50
2022-11-01T14:06:38.947Z,20.60
2022-11-01T14:09:33.592Z,20.38
2022-11-01T14:12:38.408Z,20.10
2022-11-01T14:15:28.235Z,19.78
2022-11-01T14:18:11.231Z,19.50
2022-11-01T14:20:51.798Z,19.30
2022-11-01T14:24:02.679Z,19.10
2022-11-01T14:26:51.343Z,18.84
2022-11-01T14:29:25.874Z,18.52
2022-11-01T14:32:01.318Z,18.30
2022-11-01T14:34:41.746Z,18.16
2022-11-01T14:37:27.153Z,17.98
2022-11-01T14:40:16.301Z,17.80
2022-11-01T14:42:51.922Z,17.70
2022-11-01T14:45:34.848Z,17.60
2022-11-01T14:48:20.200Z,17.50
2022-11-01T14:51:05.857Z,17.34
2022-11-01T14:53:41.537Z,17.20
2022-11-01T14:56:22.041Z,17.10
2022-11-01T14:59:14.134Z,17.00
2022-11-01T15:01:58.164Z,16.82
2022-11-01T15:04:43.926Z,16.70
2022-11-01T15:07:30.624Z,16.64
2022-11-01T15:10:09.840Z,16.60
2022-11-01T15:12:50.326Z,16.50
2022-11-01T15:15:27.604Z,16.40
2022-11-01T15:18:06.335Z,16.30
2022-11-01T15:20:45.869Z,16.20
2022-11-01T15:23:26.226Z,16.10
2022-11-01T15:26:08.544Z,16.00
2022-11-01T15:28:48.031Z,15.90
2022-11-01T15:31:22.608Z,15.80
2022-11-01T15:34:00.805Z,15.70
2022-11-01T15:36:37.871Z,15.70
2022-11-01T15:39:25.914Z,15.60
2022-11-01T15:42:01.767Z,15.50
2022-11-01T15:44:35.600Z,15.40
2022-11-01T15:47:12.561Z,15.40
2022-11-01T15:49:54.150Z,15.30
2022-11-01T15:52:50.175Z,15.20
2022-11-01T15:55:34.165Z,15.20
2022-11-01T15:58:15.486Z,15.10
2022-11-01T17:31:30.530Z,15.38
2022-11-01T17:34:04.336Z,15.30
2022-11-01T17:36:39.435Z,15.20
2022-11-01T17:39:15.987Z,15.10
2022-11-01T17:41:49.898Z,15.00
2022-11-01T17:44:24.068Z,14.90
2022-11-01T17:46:57.892Z,14.84
2022-11-01T17:49:32.008Z,14.78
2022-11-01T17:52:06.209Z,14.70
2022-11-01T17:54:40.083Z,14.60
2022-11-01T17:57:14.145Z,14.60
2022-11-01T17:59:48.124Z,14.60
2022-11-01T18:02:22.151Z,14.60
2022-11-01T18:04:58.781Z,14.60
2022-11-01T18:07:39.025Z,14.58
2022-11-01T18:10:22.267Z,14.50
2022-11-01T18:13:29.481Z,14.50
2022-11-01T18:16:09.507Z,14.40
2022-11-01T18:19:03.546Z,14.40
2022-11-01T18:21:55.311Z,14.30
2022-11-01T18:24:39.823Z,14.30
2022-11-01T18:27:17.630Z,14.30
2022-11-01T18:29:54.598Z,14.30
2022-11-01T18:32:39.658Z,14.30
2022-11-01T18:35:31.621Z,14.30
2022-11-01T18:38:23.573Z,14.30
2022-11-01T18:41:02.293Z,14.22
2022-11-01T18:43:39.501Z,14.20
2022-11-01T18:46:25.043Z,14.10
2022-11-01T18:49:03.764Z,14.10
2022-11-01T18:51:41.550Z,14.10
2022-11-01T18:54:28.982Z,14.04
2022-11-01T18:57:16.325Z,14.06
2022-11-01T18:59:53.541Z,14.08
2022-11-01T19:02:28.879Z,14.00
2022-11-01T19:05:18.401Z,14.00
2022-11-01T19:08:16.545Z,13.90
2022-11-01T19:10:50.469Z,13.90
2022-11-01T19:13:31.805Z,13.86
2022-11-01T19:16:11.882Z,13.80
2022-11-01T19:18:46.225Z,13.70
2022-11-01T19:21:23.802Z,13.70
2022-11-01T19:24:00.663Z,13.70
2022-11-01T19:26:42.557Z,13.70
2022-11-01T19:29:26.136Z,13.70
2022-11-01T19:32:05.287Z,13.70
2022-11-01T19:34:46.374Z,13.68
2022-11-01T19:37:33.224Z,13.70
2022-11-01T19:40:28.484Z,13.60
2022-11-01T19:43:13.633Z,13.60
2022-11-01T19:45:52.616Z,13.70
2022-11-01T19:48:31.561Z,13.70
2022-11-01T19:51:13.418Z,13.70
2022-11-01T19:53:51.184Z,13.70
2022-11-01T19:56:30.204Z,13.70
2022-11-01T19:59:13.178Z,13.70
2022-11-01T20:01:50.136Z,13.70
2022-11-01T20:04:33.011Z,13.70
2022-11-01T20:07:17.242Z,13.70
2022-11-01T20:09:58.419Z,13.70
2022-11-01T20:12:34.553Z,13.70
2022-11-01T20:15:11.224Z,13.80
2022-11-01T20:20:25.679Z,13.80
2022-11-01T20:23:24.713Z,13.80
2022-11-01T20:25:57.093Z,13.76
2022-11-01T20:28:31.825Z,13.70
2022-11-01T20:31:06.905Z,13.70
2022-11-01T20:33:41.041Z,13.70
2022-11-01T20:36:15.542Z,13.70
2022-11-01T20:38:49.558Z,13.70
2022-11-01T20:41:24.794Z,13.70
2022-11-01T20:43:59.103Z,13.70
2022-11-01T20:46:33.171Z,13.70
2022-11-01T20:49:07.587Z,13.70
2022-11-01T20:51:41.858Z,13.70
2022-11-01T20:54:18.031Z,13.60
2022-11-01T20:56:52.749Z,13.60
2022-11-01T20:59:26.523Z,13.60
2022-11-01T21:02:00.771Z,13.60
2022-11-01T21:04:34.880Z,13.60
2022-11-01T21:07:14.946Z,13.60
2022-11-01T21:09:51.891Z,13.50
2022-11-01T21:12:44.959Z,13.50
2022-11-01T21:15:38.498Z,13.40
2022-11-01T21:18:37.393Z,13.40
2022-11-01T21:21:46.628Z,13.40
2022-11-01T21:24:37.590Z,13.40
2022-11-01T21:27:26.881Z,13.30
2022-11-01T21:30:18.505Z,13.20
2022-11-01T21:32:54.016Z,13.10
2022-11-01T21:35:43.120Z,13.10
2022-11-01T21:38:41.420Z,13.00
2022-11-01T21:41:33.125Z,12.90
2022-11-01T21:44:25.738Z,12.88
2022-11-01T21:47:13.410Z,12.80
2022-11-01T21:49:48.270Z,12.80
2022-11-01T21:52:23.861Z,12.80
2022-11-01T21:54:57.846Z,12.70
2022-11-01T21:57:33.774Z,12.70
2022-11-01T22:00:11.543Z,12.66
2022-11-01T22:02:46.248Z,12.60
2022-11-01T22:05:21.557Z,12.60
2022-11-01T22:07:56.175Z,12.56
2022-11-01T22:10:30.769Z,12.44
2022-11-01T22:13:07.044Z,12.30
2022-11-01T22:15:42.702Z,12.18
2022-11-01T22:18:22.394Z,12.08
2022-11-01T22:20:58.980Z,12.00
2022-11-01T22:23:34.484Z,11.94
2022-11-01T22:26:10.257Z,11.90
2022-11-01T22:28:45.794Z,11.80
2022-11-01T22:31:20.327Z,11.80
2022-11-01T22:33:59.585Z,11.80
2022-11-01T22:36:38.145Z,11.80
2022-11-01T22:39:23.707Z,11.80
2022-11-01T22:41:59.774Z,11.74
2022-11-01T22:44:38.893Z,11.70
2022-11-01T22:47:26.918Z,11.70
2022-11-01T22:50:11.250Z,11.64
2022-11-01T22:52:49.043Z,11.70
2022-11-01T22:55:29.184Z,11.60
2022-11-01T22:58:19.528Z,11.60
2022-11-01T23:00:56.509Z,11.60
2022-11-01T23:03:41.559Z,11.54
2022-11-01T23:06:35.206Z,11.50
2022-11-01T23:09:22.445Z,11.40
2022-11-01T23:12:17.856Z,11.40
2022-11-01T23:14:55.783Z,11.30
2022-11-01T23:17:37.595Z,11.20
2022-11-01T23:20:14.937Z,11.12
2022-11-01T23:22:50.967Z,11.00
2022-11-01T23:25:27.101Z,10.80
2022-11-01T23:28:02.659Z,10.70
2022-11-01T23:30:38.409Z,10.70
2022-11-01T23:33:19.158Z,10.70
2022-11-01T23:35:58.464Z,10.60
2022-11-01T23:38:41.502Z,10.60
2022-11-01T23:41:26.852Z,10.60
2022-11-01T23:44:12.052Z,10.60
2022-11-01T23:46:47.631Z,10.60
2022-11-01T23:49:27.023Z,10.60
2022-11-01T23:52:09.275Z,10.60
2022-11-01T23:54:46.346Z,10.60
2022-11-01T23:57:25.045Z,10.50
2022-11-01T23:59:59.360Z,10.40
